createdAt,value
2019-02-19T00:00:01.590Z,4.67
2019-02-19T00:02:50.582Z,4.67
2019-02-19T00:05:39.945Z,4.47
2019-02-19T00:08:10.755Z,4.83
2019-02-19T00:10:41.715Z,5.17
2019-02-19T00:13:31.006Z,4.87
2019-02-19T00:16:01.893Z,4.60
2019-02-19T00:18:32.708Z,5.30
2019-02-19T00:21:05.455Z,4.63
2019-02-19T00:23:48.553Z,5.10
2019-02-19T00:26:21.372Z,5.10
2019-02-19T00:28:54.097Z,4.90
2019-02-19T00:31:26.888Z,4.97
2019-02-19T00:33:59.652Z,4.63
2019-02-19T00:36:43.073Z,4.97
2019-02-19T00:39:15.828Z,5.07
2019-02-19T00:41:48.594Z,4.87
2019-02-19T00:44:21.321Z,5.00
2019-02-19T00:46:54.057Z,5.10
2019-02-19T00:49:36.466Z,5.00
2019-02-19T00:52:09.274Z,5.30
2019-02-19T00:54:42.031Z,5.10
2019-02-19T00:57:14.753Z,5.20
2019-02-19T00:59:47.464Z,4.70
2019-02-19T01:02:30.433Z,4.90
2019-02-19T01:05:03.230Z,4.80
2019-02-19T01:07:35.937Z,4.87
2019-02-19T01:10:06.897Z,4.57
2019-02-19T01:12:37.719Z,4.53
2019-02-19T01:15:09.567Z,4.50
2019-02-19T01:17:40.344Z,4.80
2019-02-19T01:20:11.030Z,5.00
2019-02-19T01:22:50.271Z,4.90
2019-02-19T01:25:20.994Z,4.67
2019-02-19T01:27:51.750Z,4.60
2019-02-19T01:30:22.417Z,4.50
2019-02-19T01:32:53.124Z,4.87
2019-02-19T01:35:23.839Z,4.73
2019-02-19T01:37:54.557Z,4.50
2019-02-19T01:40:25.271Z,4.63
2019-02-19T01:42:56.028Z,4.60
2019-02-19T01:45:33.860Z,4.73
2019-02-19T01:47:59.171Z,5.00
2019-02-19T01:50:29.867Z,4.70
2019-02-19T01:53:00.843Z,4.90
2019-02-19T01:55:31.628Z,4.57
2019-02-19T01:58:02.366Z,4.50
2019-02-19T02:00:33.503Z,4.37
2019-02-19T02:03:04.750Z,4.40
2019-02-19T02:05:35.506Z,4.43
2019-02-19T02:08:06.562Z,4.30
2019-02-19T02:10:37.318Z,4.47
2019-02-19T02:13:07.995Z,4.10
2019-02-19T02:15:42.766Z,4.50
2019-02-19T02:18:11.078Z,4.07
2019-02-19T02:20:41.794Z,4.13
2019-02-19T02:23:12.510Z,4.33
2019-02-19T02:25:43.277Z,4.60
2019-02-19T02:28:13.993Z,4.07
2019-02-19T02:30:44.738Z,3.70
2019-02-19T02:33:15.446Z,3.80
2019-02-19T02:35:46.252Z,4.03
2019-02-19T02:38:16.981Z,4.33
2019-02-19T02:40:47.725Z,4.03
2019-02-19T02:43:18.453Z,4.17
2019-02-19T02:45:53.398Z,3.80
2019-02-19T02:48:21.535Z,4.30
2019-02-19T02:50:52.261Z,4.77
2019-02-19T02:53:23.008Z,4.00
2019-02-19T02:55:53.733Z,4.07
2019-02-19T02:58:24.439Z,4.30
2019-02-19T03:00:55.175Z,4.57
2019-02-19T03:03:25.887Z,4.23
2019-02-19T03:06:25.005Z,4.27
2019-02-19T03:08:55.695Z,4.03
2019-02-19T03:11:26.430Z,4.57
2019-02-19T03:13:57.174Z,4.33
2019-02-19T03:16:27.910Z,4.07
2019-02-19T03:18:58.636Z,4.00
2019-02-19T03:21:29.423Z,4.23
2019-02-19T03:24:00.121Z,3.87
2019-02-19T03:26:30.865Z,4.23
2019-02-19T03:29:01.593Z,3.47
2019-02-19T03:31:32.319Z,4.07
2019-02-19T03:34:03.035Z,3.87
2019-02-19T03:36:33.741Z,3.83
2019-02-19T03:39:05.278Z,4.07
2019-02-19T03:41:36.023Z,3.93
2019-02-19T03:44:06.739Z,4.47
2019-02-19T03:46:37.529Z,3.67
2019-02-19T03:49:08.225Z,4.37
2019-02-19T03:51:38.961Z,4.00
2019-02-19T03:54:09.685Z,4.80
2019-02-19T03:56:40.444Z,3.43
2019-02-19T03:59:11.127Z,4.10
2019-02-19T04:01:41.815Z,3.90
2019-02-19T04:04:12.571Z,3.90
2019-02-19T04:06:43.296Z,3.97
2019-02-19T04:09:14.063Z,3.77
2019-02-19T04:11:44.758Z,4.37
2019-02-19T04:14:15.543Z,4.20
2019-02-19T04:16:46.241Z,3.80
2019-02-19T04:19:16.917Z,4.10
2019-02-19T04:21:47.627Z,3.93
2019-02-19T04:24:18.389Z,4.23
2019-02-19T04:26:49.088Z,3.90
2019-02-19T04:29:19.823Z,4.03
2019-02-19T04:31:50.528Z,4.40
2019-02-19T04:34:21.265Z,4.20
2019-02-19T04:36:51.992Z,4.10
2019-02-19T04:39:22.758Z,4.00
2019-02-19T04:41:53.494Z,4.50
2019-02-19T04:44:24.230Z,4.13
2019-02-19T04:46:54.948Z,4.60
2019-02-19T04:49:25.733Z,4.30
2019-02-19T04:51:56.469Z,4.70
2019-02-19T04:54:27.246Z,4.17
2019-02-19T04:56:58.363Z,4.47
2019-02-19T04:59:29.159Z,4.00
2019-02-19T05:01:59.836Z,4.47
2019-02-19T05:04:30.616Z,4.63
2019-02-19T05:07:01.336Z,4.77
2019-02-19T05:09:32.091Z,4.50
2019-02-19T05:12:02.849Z,4.63
2019-02-19T05:14:33.586Z,4.83
2019-02-19T05:17:04.353Z,4.60
2019-02-19T05:19:35.080Z,4.53
2019-02-19T05:22:05.805Z,4.90
2019-02-19T05:24:36.522Z,4.53
2019-02-19T05:27:07.287Z,4.70
2019-02-19T05:29:37.944Z,5.10
2019-02-19T05:32:08.711Z,5.03
2019-02-19T05:34:39.442Z,5.10
2019-02-19T05:37:10.183Z,5.70
2019-02-19T05:39:40.941Z,5.60
2019-02-19T05:42:11.704Z,5.03
2019-02-19T05:44:42.382Z,5.53
2019-02-19T05:47:13.133Z,5.50
2019-02-19T05:49:43.893Z,5.60
2019-02-19T05:52:14.641Z,5.83
2019-02-19T05:54:45.392Z,5.90
2019-02-19T05:57:16.163Z,5.80
2019-02-19T05:59:46.891Z,6.00
2019-02-19T06:02:17.690Z,6.47
2019-02-19T06:04:48.419Z,5.83
2019-02-19T06:07:19.218Z,6.30
2019-02-19T06:09:49.935Z,6.33
2019-02-19T06:12:20.651Z,5.63
2019-02-19T06:14:51.464Z,6.50
2019-02-19T06:17:22.204Z,5.70
2019-02-19T06:19:52.920Z,7.07
2019-02-19T06:22:23.685Z,6.93
2019-02-19T06:24:54.402Z,6.50
2019-02-19T06:27:25.129Z,6.37
2019-02-19T06:29:55.885Z,6.43
2019-02-19T06:32:26.645Z,7.27
2019-02-19T06:34:57.387Z,7.90
2019-02-19T06:37:28.094Z,7.17
2019-02-19T06:39:58.824Z,6.57
2019-02-19T06:42:29.757Z,9.00
2019-02-19T06:45:00.503Z,7.17
2019-02-19T06:47:31.279Z,6.90
2019-02-19T06:50:02.025Z,7.33
2019-02-19T06:52:32.742Z,7.17
2019-02-19T06:55:03.511Z,7.70
2019-02-19T06:57:34.234Z,7.83
2019-02-19T07:00:05.211Z,8.00
2019-02-19T07:02:50.650Z,8.70
2019-02-19T07:05:23.137Z,9.40
2019-02-19T07:07:53.903Z,8.17
2019-02-19T07:10:24.669Z,9.07
2019-02-19T07:12:55.416Z,8.87
2019-02-19T07:15:26.183Z,9.03
2019-02-19T07:17:56.889Z,8.87
2019-02-19T07:20:27.624Z,8.60
2019-02-19T07:22:58.380Z,10.23
2019-02-19T07:25:29.138Z,10.17
2019-02-19T07:27:59.846Z,9.53
2019-02-19T07:30:30.599Z,9.60
2019-02-19T07:33:01.299Z,9.80
2019-02-19T07:35:32.613Z,9.43
2019-02-19T07:38:03.329Z,9.47
2019-02-19T07:40:34.128Z,10.00
2019-02-19T07:43:04.843Z,9.60
2019-02-19T07:45:35.596Z,10.53
2019-02-19T07:48:06.354Z,10.67
2019-02-19T07:50:37.061Z,10.17
2019-02-19T07:53:07.777Z,11.17
2019-02-19T07:55:38.574Z,10.73
2019-02-19T07:58:09.299Z,11.43
2019-02-19T08:00:40.068Z,11.40
2019-02-19T08:03:10.792Z,14.70
2019-02-19T08:05:41.559Z,16.97
2019-02-19T08:08:12.315Z,16.43
2019-02-19T08:10:43.041Z,15.47
2019-02-19T08:13:13.777Z,13.97
2019-02-19T08:15:44.492Z,12.90
2019-02-19T08:18:15.270Z,15.10
2019-02-19T08:20:45.946Z,19.93
2019-02-19T08:23:16.713Z,17.13
2019-02-19T08:25:47.416Z,16.37
2019-02-19T08:28:18.176Z,12.67
2019-02-19T08:30:48.953Z,11.80
2019-02-19T08:33:19.699Z,12.50
2019-02-19T08:35:50.396Z,11.20
2019-02-19T08:38:21.140Z,12.30
2019-02-19T08:40:51.876Z,12.13
2019-02-19T08:43:22.593Z,14.17
2019-02-19T08:45:53.367Z,12.70
2019-02-19T08:48:24.088Z,13.97
2019-02-19T08:50:54.772Z,12.70
2019-02-19T08:53:26.858Z,11.67
2019-02-19T08:55:57.605Z,12.27
2019-02-19T08:58:28.357Z,11.33
2019-02-19T09:00:59.109Z,13.27
2019-02-19T09:03:29.843Z,13.30
2019-02-19T09:06:00.589Z,14.63
2019-02-19T09:08:31.336Z,14.03
2019-02-19T09:11:02.042Z,13.03
2019-02-19T09:13:32.824Z,11.43
2019-02-19T09:16:03.535Z,10.90
2019-02-19T09:18:34.281Z,11.27
2019-02-19T09:21:05.029Z,11.50
2019-02-19T09:23:36.139Z,11.03
2019-02-19T09:26:07.050Z,11.00
2019-02-19T09:28:37.776Z,10.37
2019-02-19T09:31:08.541Z,10.80
2019-02-19T09:33:39.279Z,10.20
2019-02-19T09:36:10.040Z,9.43
2019-02-19T09:38:40.795Z,9.77
2019-02-19T09:41:11.547Z,9.00
2019-02-19T09:43:42.313Z,7.60
2019-02-19T09:46:13.122Z,7.07
2019-02-19T09:48:43.846Z,7.20
2019-02-19T09:51:14.635Z,6.77
2019-02-19T09:53:45.348Z,6.83
2019-02-19T09:56:16.075Z,6.97
2019-02-19T09:58:46.811Z,7.60
2019-02-19T10:02:45.940Z,7.90
2019-02-19T10:05:16.795Z,7.83
2019-02-19T10:07:47.524Z,7.47
2019-02-19T10:10:18.497Z,8.30
2019-02-19T10:12:49.234Z,8.37
2019-02-19T10:15:19.960Z,8.70
2019-02-19T10:17:50.876Z,7.60
2019-02-19T10:20:21.860Z,8.20
2019-02-19T10:22:52.699Z,7.47
2019-02-19T10:25:23.556Z,7.47
2019-02-19T10:27:54.451Z,7.47
2019-02-19T10:30:25.453Z,7.10
2019-02-19T10:32:56.354Z,7.37
2019-02-19T10:35:27.260Z,7.07
2019-02-19T10:37:58.117Z,7.37
2019-02-19T10:40:29.194Z,8.33
2019-02-19T10:43:48.920Z,7.27
2019-02-19T10:46:20.543Z,8.27
2019-02-19T10:48:52.023Z,8.67
2019-02-19T10:51:23.531Z,7.77
2019-02-19T10:53:54.997Z,7.80
2019-02-19T10:56:26.554Z,8.30
2019-02-19T10:58:58.040Z,7.37
2019-02-19T11:01:29.539Z,7.80
2019-02-19T11:04:01.033Z,7.57
2019-02-19T11:06:32.579Z,7.70
2019-02-19T11:09:04.655Z,7.20
2019-02-19T11:11:36.213Z,7.67
2019-02-19T11:14:07.709Z,8.07
2019-02-19T11:16:39.255Z,8.13
2019-02-19T11:19:10.743Z,8.00
2019-02-19T11:21:42.258Z,7.40
2019-02-19T11:24:13.745Z,7.00
2019-02-19T11:26:45.161Z,6.73
2019-02-19T11:29:16.668Z,6.80
2019-02-19T11:32:14.103Z,6.37
2019-02-19T11:34:45.115Z,6.87
2019-02-19T11:37:16.032Z,6.90
2019-02-19T11:39:46.918Z,11.70
2019-02-19T11:42:17.825Z,7.20
2019-02-19T11:44:48.712Z,6.07
2019-02-19T11:47:26.433Z,6.70
2019-02-19T11:51:09.457Z,7.63
2019-02-19T11:53:41.022Z,10.37
2019-02-19T11:56:29.691Z,5.87
2019-02-19T11:59:01.197Z,5.90
2019-02-19T12:01:32.623Z,8.37
2019-02-19T12:04:04.119Z,4.87
2019-02-19T12:06:35.626Z,4.87
2019-02-19T12:09:07.426Z,5.50
2019-02-19T12:11:38.900Z,4.77
2019-02-19T12:14:10.466Z,4.63
2019-02-19T12:16:41.943Z,4.73
2019-02-19T12:19:13.478Z,4.67
2019-02-19T12:21:44.946Z,4.70
2019-02-19T12:24:16.492Z,5.17
2019-02-19T12:26:47.968Z,4.30
2019-02-19T12:29:19.485Z,7.87
2019-02-19T12:31:50.991Z,8.67
2019-02-19T12:34:22.514Z,4.10
2019-02-19T12:36:54.035Z,4.43
2019-02-19T12:39:25.491Z,3.90
2019-02-19T12:41:56.998Z,4.43
2019-02-19T12:44:28.524Z,4.63
2019-02-19T12:47:00.071Z,5.30
2019-02-19T12:49:31.597Z,5.57
2019-02-19T12:52:03.111Z,4.63
2019-02-19T12:54:34.600Z,3.70
2019-02-19T12:57:06.156Z,4.43
2019-02-19T12:59:56.515Z,4.70
2019-02-19T13:02:44.989Z,4.53
2019-02-19T13:05:33.919Z,4.13
2019-02-19T13:08:22.319Z,4.03
2019-02-19T13:11:11.371Z,4.40
2019-02-19T13:13:59.811Z,4.03
2019-02-19T13:16:48.492Z,3.97
2019-02-19T13:19:37.642Z,3.60
2019-02-19T13:22:27.005Z,3.60
2019-02-19T13:25:16.338Z,3.70
2019-02-19T13:28:05.775Z,3.70
2019-02-19T13:30:54.379Z,3.73
2019-02-19T13:33:43.548Z,3.83
2019-02-19T13:36:32.607Z,3.93
2019-02-19T13:39:21.660Z,3.60
2019-02-19T13:42:10.840Z,3.30
2019-02-19T13:44:59.903Z,3.43
2019-02-19T13:47:49.300Z,3.70
2019-02-19T13:50:38.221Z,3.50
2019-02-19T13:53:37.058Z,4.63
2019-02-19T13:56:27.657Z,5.30
2019-02-19T13:59:16.392Z,9.73
2019-02-19T14:02:05.657Z,10.90
2019-02-19T14:04:54.498Z,4.97
2019-02-19T14:07:43.839Z,7.20
2019-02-19T14:10:32.493Z,5.83
2019-02-19T14:13:21.740Z,4.53
2019-02-19T14:16:32.986Z,4.53
2019-02-19T14:19:39.061Z,4.03
2019-02-19T14:22:46.030Z,4.30
2019-02-19T14:25:51.310Z,6.60
2019-02-19T14:29:00.107Z,4.00
2019-02-19T14:31:47.917Z,4.80
2019-02-19T14:34:37.651Z,4.20
2019-02-19T14:37:18.797Z,4.57
2019-02-19T14:40:45.880Z,3.60
2019-02-19T14:44:11.879Z,4.20
2019-02-19T14:47:14.410Z,4.37
2019-02-19T14:50:13.693Z,4.17
2019-02-19T14:53:30.794Z,4.10
2019-02-19T14:56:37.328Z,4.30
2019-02-19T14:59:45.206Z,4.93
2019-02-19T15:02:51.496Z,6.37
2019-02-19T15:05:58.651Z,4.10
2019-02-19T15:09:09.781Z,3.90
2019-02-19T15:12:08.032Z,4.00
2019-02-19T15:14:50.913Z,3.47
2019-02-19T15:17:35.980Z,4.00
2019-02-19T15:20:28.141Z,3.50
2019-02-19T15:23:15.056Z,4.10
2019-02-19T15:26:02.602Z,4.30
2019-02-19T15:28:51.382Z,5.70
2019-02-19T15:31:46.380Z,5.00
2019-02-19T15:34:31.055Z,5.00
2019-02-19T15:37:35.340Z,4.10
2019-02-19T15:40:23.053Z,3.40
2019-02-19T15:43:24.393Z,3.57
2019-02-19T15:46:12.130Z,3.20
2019-02-19T15:49:00.004Z,3.07
2019-02-19T15:51:47.565Z,3.30
2019-02-19T15:54:42.279Z,3.77
2019-02-19T15:57:35.968Z,4.30
2019-02-19T16:00:34.722Z,3.20
2019-02-19T16:03:31.056Z,3.50
2019-02-19T16:06:22.739Z,3.80
2019-02-19T16:09:06.695Z,3.40
2019-02-19T16:11:45.886Z,3.30
2019-02-19T16:14:53.212Z,3.10
2019-02-19T16:17:54.043Z,3.17
2019-02-19T16:20:32.832Z,3.17
2019-02-19T16:23:28.056Z,3.17
2019-02-19T16:26:28.616Z,3.43
2019-02-19T16:29:09.556Z,3.33
2019-02-19T16:31:53.796Z,3.50
2019-02-19T16:34:48.758Z,2.80
2019-02-19T16:37:25.678Z,3.13
2019-02-19T16:40:06.985Z,3.47
2019-02-19T16:42:52.780Z,3.63
2019-02-19T16:45:41.745Z,3.13
2019-02-19T16:48:24.545Z,3.20
2019-02-19T16:51:19.517Z,3.20
2019-02-19T16:54:07.263Z,3.20
2019-02-19T16:57:02.393Z,3.80
2019-02-19T17:00:48.194Z,3.60
2019-02-19T17:03:34.473Z,3.60
2019-02-19T17:06:24.382Z,3.27
2019-02-19T17:09:00.491Z,3.27
2019-02-19T17:11:41.907Z,3.73
2019-02-19T17:14:46.970Z,4.27
2019-02-19T17:18:57.996Z,14.63
2019-02-19T17:21:51.102Z,12.10
2019-02-19T17:24:44.728Z,12.90
2019-02-19T17:27:37.511Z,11.07
2019-02-19T17:30:27.844Z,16.40
2019-02-19T17:33:30.002Z,6.43
2019-02-19T17:36:19.846Z,4.67
2019-02-19T17:39:00.224Z,4.37
2019-02-19T17:41:44.906Z,4.10
2019-02-19T17:44:40.569Z,4.53
2019-02-19T17:51:05.212Z,7.73
2019-02-19T17:53:55.173Z,10.90
2019-02-19T17:56:48.488Z,13.47
2019-02-19T18:00:47.281Z,13.13
2019-02-19T18:03:36.815Z,8.57
2019-02-19T18:06:24.974Z,8.77
2019-02-19T18:10:08.578Z,13.23
2019-02-19T18:13:00.043Z,10.50
2019-02-19T18:15:43.561Z,10.80
2019-02-19T18:20:15.403Z,5.90
2019-02-19T18:22:47.969Z,6.67
2019-02-19T18:26:50.153Z,5.63
2019-02-19T18:29:21.134Z,5.07
2019-02-19T18:31:52.050Z,5.50
2019-02-19T18:34:22.956Z,6.17
2019-02-19T18:38:22.794Z,8.40
2019-02-19T18:41:11.979Z,7.83
2019-02-19T18:43:42.932Z,6.80
2019-02-19T18:46:13.827Z,11.40
2019-02-19T18:50:27.416Z,12.27
2019-02-19T18:52:57.530Z,30.97
2019-02-19T18:55:27.541Z,10.60
2019-02-19T18:57:57.578Z,8.43
2019-02-19T19:00:27.634Z,22.40
2019-02-19T19:02:57.672Z,11.83
2019-02-19T19:05:27.730Z,23.63
2019-02-19T19:07:58.224Z,18.00
2019-02-19T19:10:28.273Z,13.60
2019-02-19T19:12:58.257Z,17.77
2019-02-19T19:15:28.240Z,13.70
2019-02-19T19:17:58.276Z,14.17
2019-02-19T19:20:28.314Z,14.27
2019-02-19T19:22:58.295Z,10.90
2019-02-19T19:25:28.355Z,9.40
2019-02-19T19:27:58.351Z,12.63
2019-02-19T19:30:28.447Z,10.90
2019-02-19T19:32:58.442Z,10.60
2019-02-19T19:35:28.411Z,8.97
2019-02-19T19:37:58.424Z,8.77
2019-02-19T19:40:28.380Z,8.53
2019-02-19T19:42:58.377Z,9.20
2019-02-19T19:45:28.393Z,9.47
2019-02-19T19:47:58.423Z,7.97
2019-02-19T19:50:28.454Z,8.37
2019-02-19T19:52:58.442Z,9.07
2019-02-19T19:55:28.427Z,8.03
2019-02-19T19:57:58.478Z,8.17
2019-02-19T20:00:28.429Z,8.90
2019-02-19T20:02:58.237Z,8.57
2019-02-19T20:06:22.324Z,8.47
2019-02-19T20:08:53.315Z,12.10
2019-02-19T20:11:24.247Z,19.27
2019-02-19T20:13:55.214Z,17.13
2019-02-19T20:16:26.090Z,12.00
2019-02-19T20:18:57.979Z,13.20
2019-02-19T20:23:31.917Z,6.97
2019-02-19T20:26:02.883Z,7.17
2019-02-19T20:28:32.954Z,5.77
2019-02-19T20:31:03.641Z,6.50
2019-02-19T20:33:34.360Z,6.73
2019-02-19T20:36:05.083Z,6.53
2019-02-19T20:38:35.859Z,5.73
2019-02-19T20:41:06.607Z,6.37
2019-02-19T20:43:37.383Z,6.27
2019-02-19T20:46:08.119Z,6.00
2019-02-19T20:48:38.917Z,6.67
2019-02-19T20:51:09.624Z,6.07
2019-02-19T20:53:40.357Z,6.80
2019-02-19T20:56:11.123Z,8.10
2019-02-19T20:58:41.929Z,7.80
2019-02-19T21:01:12.655Z,7.60
2019-02-19T21:03:44.175Z,6.67
2019-02-19T21:06:15.010Z,6.63
2019-02-19T21:08:45.684Z,6.33
2019-02-19T21:11:16.442Z,5.83
2019-02-19T21:13:47.197Z,5.53
2019-02-19T21:16:17.973Z,6.00
2019-02-19T21:18:48.699Z,5.97
2019-02-19T21:21:19.414Z,5.60
2019-02-19T21:23:50.126Z,6.50
2019-02-19T21:26:20.831Z,7.07
2019-02-19T21:28:51.504Z,6.53
2019-02-19T21:31:22.137Z,6.90
2019-02-19T21:33:52.859Z,6.93
2019-02-19T21:36:23.513Z,5.90
2019-02-19T21:38:54.133Z,5.83
2019-02-19T21:41:24.835Z,6.50
2019-02-19T21:43:55.513Z,5.77
2019-02-19T21:46:26.173Z,5.90
2019-02-19T21:48:56.926Z,7.13
2019-02-19T21:51:27.662Z,8.00
2019-02-19T21:53:58.487Z,7.63
2019-02-19T21:56:47.599Z,7.60
2019-02-19T21:59:36.029Z,6.60
2019-02-19T22:02:25.278Z,6.83
2019-02-19T22:05:14.469Z,8.23
2019-02-19T22:08:03.651Z,6.90
2019-02-19T22:10:53.899Z,7.17
2019-02-19T22:13:24.818Z,7.53
2019-02-19T22:15:55.604Z,6.90
2019-02-19T22:18:27.351Z,7.80
2019-02-19T22:21:09.690Z,5.93
2019-02-19T22:23:40.506Z,6.80
2019-02-19T22:26:11.213Z,6.77
2019-02-19T22:28:43.920Z,6.43
2019-02-19T22:31:16.890Z,6.20
2019-02-19T22:34:01.287Z,6.53
2019-02-19T22:36:34.055Z,5.07
2019-02-19T22:39:07.880Z,6.30
2019-02-19T22:41:51.103Z,6.03
2019-02-19T22:44:23.825Z,5.67
2019-02-19T22:46:56.434Z,5.07
2019-02-19T22:49:39.492Z,5.37
2019-02-19T22:52:12.777Z,4.97
2019-02-19T22:55:15.803Z,5.30
2019-02-19T22:57:45.759Z,5.67
2019-02-19T23:00:34.900Z,5.00
2019-02-19T23:03:26.313Z,4.57
2019-02-19T23:05:58.918Z,4.27
2019-02-19T23:08:41.616Z,5.23
2019-02-19T23:11:20.810Z,5.90
2019-02-19T23:13:53.672Z,5.63
2019-02-19T23:16:38.912Z,5.10
2019-02-19T23:19:11.710Z,4.60
2019-02-19T23:21:44.412Z,4.70
2019-02-19T23:24:27.312Z,4.27
2019-02-19T23:27:00.178Z,4.87
2019-02-19T23:29:32.919Z,4.70
2019-02-19T23:32:05.616Z,5.03
2019-02-19T23:34:38.278Z,5.33
2019-02-19T23:37:27.584Z,4.90
2019-02-19T23:40:10.832Z,5.27
2019-02-19T23:42:43.529Z,4.90
2019-02-19T23:45:16.206Z,5.27
2019-02-19T23:47:58.625Z,5.03
2019-02-19T23:50:43.957Z,5.53
2019-02-19T23:53:16.741Z,5.70
2019-02-19T23:55:49.499Z,5.30
2019-02-19T23:58:22.346Z,5.30
